Heredia, Costa Rica
Current Conditions -  °F | °C
As of 9:00 AM on Friday 24 Oct 2014 (Local Time) from MRPV Reporting Station
Clear Clear  
Wind Chill: 81°   Ceiling: Unl
Heat Index: 82°   Visibility: 6mi
Dew Point: 64°   Wind: 8mph
Humidity: 58%   Direction: 80°E
Pressure: 30.06"   Gusts: NA
Location:  10°N, 84.12°W
Report Text: MRPV 241500Z 08007KT CAVOK 27/18 A3006 NOSIG
Loading
Personal Weather Stations






























Interactive Weather Map
Tropical Storm Tracking
New forecast layout! Learn more

10-Day Weather Forecast

Advertisements
Track Severe Weather on mobile